• Join FlightAware (Why Join?)
  • Login
  • US Flag 
06:54AM EDT


 

Airport Tracker/Info


-or-


 

Live Flight TrackerFlight Track Log ✈ N240ER ✈ 28-Apr-2013 ✈ KMKE - KPTK

Flight Track Log - Related Links

Times and Time Zones

All times are in EDT time to prevent confusion due to time zone crossing. See the N240ER flight status page for this flight to view local times or setup timezone preferences in your user account.

Time Position Orientation Groundspeed Altitude Reporting Facility
EDT Latitude Longitude Course Direction KTS MPH feet Rate Location/Type
07:25PM 42.9667 -87.8500 60° Northeast 129 148 2,200  Level KMKE
07:25PM 42.9675 -87.8014 89° East 135 155 3,400 1,380 Climbing Chicago Center
07:27PM 42.9697 -87.7453 87° East 142 163 5,000 1,500 Climbing Chicago Center
07:28PM 42.9711 -87.6886 88° East 148 170 6,500 1,320 Climbing Chicago Center
07:29PM 42.9733 -87.6322 87° East 149 171 7,800 1,260 Climbing Chicago Center
07:30PM 42.9758 -87.5700 87° East 161 185 9,200 1,380 Climbing Chicago Center
07:31PM 42.9781 -87.4953 88° East 168 193 10,700 1,260 Climbing Chicago Center
07:32PM 42.9778 -87.4303 90° East 170 196 11,900 1,140 Climbing Chicago Center
07:33PM 42.9717 -87.3578 97° East 184 212 13,100 1,200 Climbing Chicago Center
07:34PM 42.9650 -87.2850 97° East 192 221 14,400 1,200 Climbing Chicago Center
07:35PM 42.9594 -87.2139 96° East 189 217 15,600 1,080 Climbing Chicago Center
07:36PM 42.9531 -87.1400 97° East 196 226 16,700 1,020 Climbing Chicago Center
07:37PM 42.9467 -87.0644 97° East 200 230 17,800 1,080 Climbing Chicago Center
07:38PM 42.9394 -86.9725 96° East 203 234 19,000 540 Climbing Chicago Center
07:39PM 42.9308 -86.8847 98° East 230 265 19,000  Level Chicago Center
07:40PM 42.9222 -86.7906 97° East 249 287 19,000  Level Chicago Center
07:41PM 42.9139 -86.6947 97° East 255 293 19,000  Level Chicago Center
07:42PM 42.9067 -86.5994 96° East 255 293 19,000  Level Chicago Center
07:43PM 42.8972 -86.5050 98° East 253 291 19,000  Level Chicago Center
07:44PM 42.8864 -86.3903 97° East 255 293 19,000  Level Chicago Center
07:45PM 42.8783 -86.2950 97° East 255 293 19,000  Level Chicago Center
07:46PM 42.8692 -86.2014 98° East 253 291 19,000  Level Chicago Center
07:47PM 42.8600 -86.1078 98° East 253 291 19,000  Level Chicago Center
07:48PM 42.8511 -86.0144 97° East 252 290 19,000  Level Chicago Center
07:49PM 42.8403 -85.9025 97° East 252 290 19,000  Level Chicago Center
07:50PM 42.8311 -85.8086 98° East 253 291 19,000  Level Chicago Center
07:51PM 42.8219 -85.7144 98° East 253 291 19,000  Level Chicago Center
07:52PM 42.8128 -85.6203 98° East 253 291 19,000  Level Chicago Center
07:53PM 42.8036 -85.5267 98° East 252 290 19,000  Level Chicago Center
07:54PM 42.7919 -85.4156 98° East 249 287 19,000  Level Chicago Center
07:55PM 42.7831 -85.3214 97° East 251 289 19,000  Level Chicago Center
07:56PM 42.7733 -85.2272 98° East 252 290 19,000  Level Chicago Center
07:58PM 42.7633 -85.1331 98° East 252 290 19,000  Level Chicago Center
07:59PM 42.7542 -85.0383 97° East 254 292 19,000 -60 Level Chicago Center
08:00PM 42.7414 -84.9247 99° East 254 292 18,900 -540 Descending Chicago Center
08:01PM 42.7314 -84.8317 98° East 250 288 17,900 -960 Descending Chicago Center
08:02PM 42.7217 -84.7406 98° East 246 283 16,900 -1,020 Descending Chicago Center
08:03PM 42.7164 -84.6514 95° East 239 275 15,900 -1,140 Descending Chicago Center
08:03PM 42.7150 -84.6106 93° East 244 281 15,400 -1,140 Descending Cleveland Center
08:04PM 42.7117 -84.5225 93° East 238 274 14,400 -1,020 Descending Cleveland Center
08:05PM 42.7147 -84.4350 87° East 238 274 13,400 -1,020 Descending Cleveland Center
08:06PM 42.7133 -84.3475 91° East 233 268 12,400 -960 Descending Cleveland Center
08:07PM 42.7094 -84.2736 94° East 228 262 11,500 -960 Descending Cleveland Center
08:08PM 42.7078 -84.1944 92° East 217 250 10,500 -1,080 Descending Cleveland Center
08:09PM 42.7061 -84.1153 92° East 217 250 9,400 -720 Descending Cleveland Center
08:10PM 42.6561 -84.0503 136° Southeast 201 231 9,000 -300 Descending Cleveland Center
08:11PM 42.6181 -83.9975 134° Southeast 195 224 8,800 -720 Descending Cleveland Center
08:12PM 42.5883 -83.9422 126° Southeast 204 235 7,700 -1,200 Descending Cleveland Center
08:13PM 42.6178 -83.8619 63° Northeast 209 241 6,400 -1,440 Descending Cleveland Center
08:14PM 42.6383 -83.7953 67° East 187 215 4,700 -1,680 Descending Cleveland Center
08:15PM 42.6547 -83.7283 72° East 184 212 3,100 -1,020 Descending Cleveland Center
08:16PM 42.6567 -83.6606 88° East 177 204 2,700 -240 Descending Cleveland Center
08:17PM 42.6606 -83.5931 85° East 170 196 2,700 -180 Level Cleveland Center
08:18PM 42.6600 -83.5308 91° East 159 183 2,400 -540 Descending Cleveland Center
08:19PM 42.6633 -83.4831 85° East 104 120 1,700 -720 Descending Cleveland Center